sensor_id;sensor_type;location;lat;lon;timestamp;P1;durP1;ratioP1;P2;durP2;ratioP2
34559;SDS011;20800;55.870;37.328;2022-10-16T00:01:24;9.63;;;5.27;;
34559;SDS011;20800;55.870;37.328;2022-10-16T00:03:52;11.97;;;5.83;;
34559;SDS011;20800;55.870;37.328;2022-10-16T00:06:20;8.37;;;5.40;;
34559;SDS011;20800;55.870;37.328;2022-10-16T00:08:47;14.30;;;5.80;;
34559;SDS011;20800;55.870;37.328;2022-10-16T00:11:15;11.97;;;5.90;;
34559;SDS011;20800;55.870;37.328;2022-10-16T00:13:43;8.37;;;5.37;;
34559;SDS011;20800;55.870;37.328;2022-10-16T00:16:11;5.70;;;4.67;;
34559;SDS011;20800;55.870;37.328;2022-10-16T00:18:39;9.47;;;4.90;;
34559;SDS011;20800;55.870;37.328;2022-10-16T00:21:07;8.50;;;5.20;;
34559;SDS011;20800;55.870;37.328;2022-10-16T00:23:59;10.70;;;5.53;;
34559;SDS011;20800;55.870;37.328;2022-10-16T00:26:28;10.47;;;5.13;;
34559;SDS011;20800;55.870;37.328;2022-10-16T00:28:55;7.63;;;5.23;;
34559;SDS011;20800;55.870;37.328;2022-10-16T00:31:21;10.03;;;5.90;;
34559;SDS011;20800;55.870;37.328;2022-10-16T00:33:48;11.60;;;5.30;;
34559;SDS011;20800;55.870;37.328;2022-10-16T00:36:15;6.43;;;4.40;;
34559;SDS011;20800;55.870;37.328;2022-10-16T00:38:43;11.30;;;5.23;;
34559;SDS011;20800;55.870;37.328;2022-10-16T00:41:10;13.40;;;5.37;;
34559;SDS011;20800;55.870;37.328;2022-10-16T00:48:48;8.10;;;4.53;;
34559;SDS011;20800;55.870;37.328;2022-10-16T00:51:50;9.73;;;5.07;;
34559;SDS011;20800;55.870;37.328;2022-10-16T00:54:23;9.47;;;4.53;;
34559;SDS011;20800;55.870;37.328;2022-10-16T00:56:52;8.10;;;4.70;;
34559;SDS011;20800;55.870;37.328;2022-10-16T00:59:24;7.73;;;5.00;;
34559;SDS011;20800;55.870;37.328;2022-10-16T01:02:02;11.97;;;4.73;;
34559;SDS011;20800;55.870;37.328;2022-10-16T01:04:34;7.73;;;4.53;;
34559;SDS011;20800;55.870;37.328;2022-10-16T01:18:14;11.80;;;4.90;;
34559;SDS011;20800;55.870;37.328;2022-10-16T01:20:45;13.63;;;4.43;;
34559;SDS011;20800;55.870;37.328;2022-10-16T01:26:36;11.73;;;5.00;;
34559;SDS011;20800;55.870;37.328;2022-10-16T01:31:44;11.97;;;6.00;;
34559;SDS011;20800;55.870;37.328;2022-10-16T01:34:32;6.87;;;4.47;;
34559;SDS011;20800;55.870;37.328;2022-10-16T01:37:32;6.13;;;4.50;;
34559;SDS011;20800;55.870;37.328;2022-10-16T01:39:59;8.77;;;4.80;;
34559;SDS011;20800;55.870;37.328;2022-10-16T01:42:34;7.10;;;3.97;;
34559;SDS011;20800;55.870;37.328;2022-10-16T01:45:03;8.87;;;5.27;;
34559;SDS011;20800;55.870;37.328;2022-10-16T01:47:32;11.60;;;4.83;;
34559;SDS011;20800;55.870;37.328;2022-10-16T01:50:01;7.00;;;4.70;;
34559;SDS011;20800;55.870;37.328;2022-10-16T01:52:30;10.23;;;5.20;;
34559;SDS011;20800;55.870;37.328;2022-10-16T01:54:59;10.10;;;5.23;;
34559;SDS011;20800;55.870;37.328;2022-10-16T01:57:27;12.37;;;4.90;;
34559;SDS011;20800;55.870;37.328;2022-10-16T01:59:56;11.27;;;5.80;;
34559;SDS011;20800;55.870;37.328;2022-10-16T02:02:26;8.47;;;5.20;;
34559;SDS011;20800;55.870;37.328;2022-10-16T02:05:02;10.07;;;5.47;;
34559;SDS011;20800;55.870;37.328;2022-10-16T02:07:35;9.77;;;5.03;;
34559;SDS011;20800;55.870;37.328;2022-10-16T02:10:01;9.13;;;5.27;;
34559;SDS011;20800;55.870;37.328;2022-10-16T02:12:29;9.47;;;4.63;;
34559;SDS011;20800;55.870;37.328;2022-10-16T02:14:58;6.90;;;4.60;;
34559;SDS011;20800;55.870;37.328;2022-10-16T02:17:24;7.13;;;5.00;;
34559;SDS011;20800;55.870;37.328;2022-10-16T02:19:51;6.67;;;4.77;;
34559;SDS011;20800;55.870;37.328;2022-10-16T02:22:26;8.57;;;4.97;;
34559;SDS011;20800;55.870;37.328;2022-10-16T02:25:19;10.60;;;4.97;;
34559;SDS011;20800;55.870;37.328;2022-10-16T02:27:53;13.33;;;5.77;;
34559;SDS011;20800;55.870;37.328;2022-10-16T02:30:23;6.63;;;4.80;;
34559;SDS011;20800;55.870;37.328;2022-10-16T02:32:54;11.57;;;4.93;;
34559;SDS011;20800;55.870;37.328;2022-10-16T02:35:23;11.50;;;4.60;;
34559;SDS011;20800;55.870;37.328;2022-10-16T02:37:50;9.63;;;4.97;;
34559;SDS011;20800;55.870;37.328;2022-10-16T02:40:17;10.27;;;4.73;;
34559;SDS011;20800;55.870;37.328;2022-10-16T02:42:43;7.10;;;4.80;;
34559;SDS011;20800;55.870;37.328;2022-10-16T02:45:10;7.57;;;4.63;;
34559;SDS011;20800;55.870;37.328;2022-10-16T02:47:36;7.20;;;4.60;;
34559;SDS011;20800;55.870;37.328;2022-10-16T02:50:03;7.53;;;4.23;;
34559;SDS011;20800;55.870;37.328;2022-10-16T02:52:29;5.77;;;3.77;;
34559;SDS011;20800;55.870;37.328;2022-10-16T02:54:55;6.93;;;4.63;;
34559;SDS011;20800;55.870;37.328;2022-10-16T02:57:21;8.97;;;4.70;;
34559;SDS011;20800;55.870;37.328;2022-10-16T02:59:48;7.40;;;4.70;;
34559;SDS011;20800;55.870;37.328;2022-10-16T03:02:13;6.43;;;4.13;;
34559;SDS011;20800;55.870;37.328;2022-10-16T03:04:39;11.50;;;4.60;;
34559;SDS011;20800;55.870;37.328;2022-10-16T03:07:05;8.70;;;4.80;;
34559;SDS011;20800;55.870;37.328;2022-10-16T03:09:32;6.70;;;4.60;;
34559;SDS011;20800;55.870;37.328;2022-10-16T03:11:59;6.17;;;4.33;;
34559;SDS011;20800;55.870;37.328;2022-10-16T03:14:24;8.10;;;4.23;;
34559;SDS011;20800;55.870;37.328;2022-10-16T03:16:50;8.40;;;4.77;;
34559;SDS011;20800;55.870;37.328;2022-10-16T03:19:17;8.00;;;4.83;;
34559;SDS011;20800;55.870;37.328;2022-10-16T03:21:43;7.30;;;4.77;;
34559;SDS011;20800;55.870;37.328;2022-10-16T03:24:10;7.60;;;4.53;;
34559;SDS011;20800;55.870;37.328;2022-10-16T03:26:36;10.73;;;5.30;;
34559;SDS011;20800;55.870;37.328;2022-10-16T03:29:01;6.63;;;4.67;;
34559;SDS011;20800;55.870;37.328;2022-10-16T03:31:29;8.73;;;4.37;;
34559;SDS011;20800;55.870;37.328;2022-10-16T03:33:55;12.13;;;5.10;;
34559;SDS011;20800;55.870;37.328;2022-10-16T03:36:21;7.07;;;5.00;;
34559;SDS011;20800;55.870;37.328;2022-10-16T03:38:47;8.97;;;5.47;;
34559;SDS011;20800;55.870;37.328;2022-10-16T03:41:13;9.57;;;4.83;;
34559;SDS011;20800;55.870;37.328;2022-10-16T03:43:39;9.97;;;4.87;;
34559;SDS011;20800;55.870;37.328;2022-10-16T03:46:05;8.83;;;5.07;;
34559;SDS011;20800;55.870;37.328;2022-10-16T03:48:31;8.13;;;4.80;;
34559;SDS011;20800;55.870;37.328;2022-10-16T03:50:58;8.73;;;4.87;;
34559;SDS011;20800;55.870;37.328;2022-10-16T03:53:24;11.23;;;4.77;;
34559;SDS011;20800;55.870;37.328;2022-10-16T03:55:50;9.03;;;4.90;;
34559;SDS011;20800;55.870;37.328;2022-10-16T03:58:16;9.73;;;5.17;;
34559;SDS011;20800;55.870;37.328;2022-10-16T04:00:43;6.43;;;4.43;;
34559;SDS011;20800;55.870;37.328;2022-10-16T04:03:10;7.23;;;4.37;;
34559;SDS011;20800;55.870;37.328;2022-10-16T04:05:36;7.03;;;4.47;;
34559;SDS011;20800;55.870;37.328;2022-10-16T04:08:02;8.03;;;4.33;;
34559;SDS011;20800;55.870;37.328;2022-10-16T04:10:28;7.77;;;4.00;;
34559;SDS011;20800;55.870;37.328;2022-10-16T04:12:54;7.93;;;4.53;;
34559;SDS011;20800;55.870;37.328;2022-10-16T04:15:21;8.00;;;4.03;;
34559;SDS011;20800;55.870;37.328;2022-10-16T04:17:48;9.57;;;5.03;;
34559;SDS011;20800;55.870;37.328;2022-10-16T04:20:14;13.37;;;5.90;;
34559;SDS011;20800;55.870;37.328;2022-10-16T04:22:40;10.23;;;6.33;;
34559;SDS011;20800;55.870;37.328;2022-10-16T04:25:07;6.20;;;4.43;;
34559;SDS011;20800;55.870;37.328;2022-10-16T04:27:33;7.37;;;4.00;;
34559;SDS011;20800;55.870;37.328;2022-10-16T04:29:59;7.63;;;4.27;;
34559;SDS011;20800;55.870;37.328;2022-10-16T04:32:25;9.23;;;4.00;;
34559;SDS011;20800;55.870;37.328;2022-10-16T04:34:52;6.60;;;4.33;;
34559;SDS011;20800;55.870;37.328;2022-10-16T04:37:18;7.50;;;4.00;;
34559;SDS011;20800;55.870;37.328;2022-10-16T04:39:44;5.53;;;4.23;;
34559;SDS011;20800;55.870;37.328;2022-10-16T04:42:10;7.37;;;4.20;;
34559;SDS011;20800;55.870;37.328;2022-10-16T04:44:36;9.47;;;4.00;;
34559;SDS011;20800;55.870;37.328;2022-10-16T04:47:02;6.93;;;4.30;;
34559;SDS011;20800;55.870;37.328;2022-10-16T04:49:29;6.90;;;4.20;;
34559;SDS011;20800;55.870;37.328;2022-10-16T04:51:56;7.87;;;4.40;;
34559;SDS011;20800;55.870;37.328;2022-10-16T04:54:22;5.57;;;3.73;;
34559;SDS011;20800;55.870;37.328;2022-10-16T04:56:48;6.53;;;4.13;;
34559;SDS011;20800;55.870;37.328;2022-10-16T04:59:16;7.70;;;4.17;;
34559;SDS011;20800;55.870;37.328;2022-10-16T05:01:43;6.00;;;3.73;;
34559;SDS011;20800;55.870;37.328;2022-10-16T05:04:09;12.40;;;4.27;;
34559;SDS011;20800;55.870;37.328;2022-10-16T05:06:36;7.43;;;4.60;;
34559;SDS011;20800;55.870;37.328;2022-10-16T05:09:04;9.10;;;4.50;;
34559;SDS011;20800;55.870;37.328;2022-10-16T05:11:30;7.43;;;3.67;;
34559;SDS011;20800;55.870;37.328;2022-10-16T05:13:56;6.63;;;4.70;;
34559;SDS011;20800;55.870;37.328;2022-10-16T05:16:22;11.87;;;5.17;;
34559;SDS011;20800;55.870;37.328;2022-10-16T05:18:48;9.90;;;4.17;;
34559;SDS011;20800;55.870;37.328;2022-10-16T05:21:14;9.07;;;3.93;;
34559;SDS011;20800;55.870;37.328;2022-10-16T05:23:40;7.80;;;4.33;;
34559;SDS011;20800;55.870;37.328;2022-10-16T05:26:06;6.83;;;4.43;;
34559;SDS011;20800;55.870;37.328;2022-10-16T05:28:32;7.07;;;4.10;;
34559;SDS011;20800;55.870;37.328;2022-10-16T05:30:58;7.47;;;4.40;;
34559;SDS011;20800;55.870;37.328;2022-10-16T05:33:25;7.67;;;4.03;;
34559;SDS011;20800;55.870;37.328;2022-10-16T05:35:51;10.63;;;4.17;;
34559;SDS011;20800;55.870;37.328;2022-10-16T05:38:17;10.93;;;4.07;;
34559;SDS011;20800;55.870;37.328;2022-10-16T05:40:49;5.57;;;3.00;;
34559;SDS011;20800;55.870;37.328;2022-10-16T05:43:17;5.93;;;3.57;;
34559;SDS011;20800;55.870;37.328;2022-10-16T05:45:44;4.67;;;3.33;;
34559;SDS011;20800;55.870;37.328;2022-10-16T05:48:09;4.40;;;3.37;;
34559;SDS011;20800;55.870;37.328;2022-10-16T05:50:35;9.43;;;3.63;;
34559;SDS011;20800;55.870;37.328;2022-10-16T05:53:01;8.00;;;3.93;;
34559;SDS011;20800;55.870;37.328;2022-10-16T05:55:27;9.47;;;3.90;;
34559;SDS011;20800;55.870;37.328;2022-10-16T05:57:54;9.77;;;3.83;;
34559;SDS011;20800;55.870;37.328;2022-10-16T06:00:20;11.70;;;3.87;;
34559;SDS011;20800;55.870;37.328;2022-10-16T06:02:46;6.65;;;3.55;;
34559;SDS011;20800;55.870;37.328;2022-10-16T06:05:11;6.60;;;3.38;;
34559;SDS011;20800;55.870;37.328;2022-10-16T06:07:37;7.28;;;2.97;;
34559;SDS011;20800;55.870;37.328;2022-10-16T06:10:04;7.07;;;3.58;;
34559;SDS011;20800;55.870;37.328;2022-10-16T06:12:30;14.95;;;3.53;;
34559;SDS011;20800;55.870;37.328;2022-10-16T06:14:56;6.80;;;3.40;;
34559;SDS011;20800;55.870;37.328;2022-10-16T06:17:22;5.28;;;3.75;;
34559;SDS011;20800;55.870;37.328;2022-10-16T06:19:48;5.95;;;3.78;;
34559;SDS011;20800;55.870;37.328;2022-10-16T06:22:16;13.50;;;3.72;;
34559;SDS011;20800;55.870;37.328;2022-10-16T06:24:41;6.85;;;3.72;;
34559;SDS011;20800;55.870;37.328;2022-10-16T06:27:07;6.57;;;3.65;;
34559;SDS011;20800;55.870;37.328;2022-10-16T06:29:33;6.25;;;3.65;;
34559;SDS011;20800;55.870;37.328;2022-10-16T06:31:59;8.48;;;3.97;;
34559;SDS011;20800;55.870;37.328;2022-10-16T06:34:25;7.97;;;3.65;;
34559;SDS011;20800;55.870;37.328;2022-10-16T06:36:51;7.05;;;3.90;;
34559;SDS011;20800;55.870;37.328;2022-10-16T06:39:17;6.80;;;4.00;;
34559;SDS011;20800;55.870;37.328;2022-10-16T06:41:43;8.75;;;4.70;;
34559;SDS011;20800;55.870;37.328;2022-10-16T06:44:15;6.85;;;3.88;;
34559;SDS011;20800;55.870;37.328;2022-10-16T06:46:41;8.57;;;3.70;;
34559;SDS011;20800;55.870;37.328;2022-10-16T06:49:07;9.43;;;3.40;;
34559;SDS011;20800;55.870;37.328;2022-10-16T06:51:32;6.13;;;3.63;;
34559;SDS011;20800;55.870;37.328;2022-10-16T06:54:01;10.52;;;3.35;;
34559;SDS011;20800;55.870;37.328;2022-10-16T06:56:27;8.80;;;3.70;;
34559;SDS011;20800;55.870;37.328;2022-10-16T06:58:55;7.90;;;3.92;;
34559;SDS011;20800;55.870;37.328;2022-10-16T07:01:22;7.57;;;3.85;;
34559;SDS011;20800;55.870;37.328;2022-10-16T07:03:48;7.93;;;3.58;;
34559;SDS011;20800;55.870;37.328;2022-10-16T07:06:16;6.95;;;3.50;;
34559;SDS011;20800;55.870;37.328;2022-10-16T07:08:44;8.13;;;3.42;;
34559;SDS011;20800;55.870;37.328;2022-10-16T07:11:12;5.65;;;4.05;;
34559;SDS011;20800;55.870;37.328;2022-10-16T07:13:40;5.22;;;3.28;;
34559;SDS011;20800;55.870;37.328;2022-10-16T07:18:35;5.57;;;3.50;;
34559;SDS011;20800;55.870;37.328;2022-10-16T07:21:10;6.68;;;3.50;;
34559;SDS011;20800;55.870;37.328;2022-10-16T07:23:38;6.45;;;3.55;;
34559;SDS011;20800;55.870;37.328;2022-10-16T07:26:05;10.25;;;4.65;;
34559;SDS011;20800;55.870;37.328;2022-10-16T07:28:32;10.38;;;4.38;;
34559;SDS011;20800;55.870;37.328;2022-10-16T07:31:02;8.85;;;4.47;;
34559;SDS011;20800;55.870;37.328;2022-10-16T07:33:30;7.32;;;5.07;;
34559;SDS011;20800;55.870;37.328;2022-10-16T07:35:57;8.20;;;3.88;;
34559;SDS011;20800;55.870;37.328;2022-10-16T07:38:23;8.63;;;4.35;;
34559;SDS011;20800;55.870;37.328;2022-10-16T07:40:55;7.05;;;3.78;;
34559;SDS011;20800;55.870;37.328;2022-10-16T07:43:31;7.90;;;4.28;;
34559;SDS011;20800;55.870;37.328;2022-10-16T07:45:58;5.95;;;3.92;;
34559;SDS011;20800;55.870;37.328;2022-10-16T07:48:26;11.00;;;4.45;;
34559;SDS011;20800;55.870;37.328;2022-10-16T07:50:57;8.52;;;4.00;;
34559;SDS011;20800;55.870;37.328;2022-10-16T07:53:24;9.20;;;4.03;;
34559;SDS011;20800;55.870;37.328;2022-10-16T07:55:51;6.68;;;3.90;;
34559;SDS011;20800;55.870;37.328;2022-10-16T07:58:17;6.15;;;4.15;;
34559;SDS011;20800;55.870;37.328;2022-10-16T08:00:43;6.78;;;3.80;;
34559;SDS011;20800;55.870;37.328;2022-10-16T08:03:08;6.82;;;3.30;;
34559;SDS011;20800;55.870;37.328;2022-10-16T08:05:34;5.10;;;3.35;;
34559;SDS011;20800;55.870;37.328;2022-10-16T08:08:01;8.00;;;3.88;;
34559;SDS011;20800;55.870;37.328;2022-10-16T08:10:27;7.35;;;3.40;;
34559;SDS011;20800;55.870;37.328;2022-10-16T08:12:54;12.32;;;3.67;;
34559;SDS011;20800;55.870;37.328;2022-10-16T08:15:20;7.07;;;3.35;;
34559;SDS011;20800;55.870;37.328;2022-10-16T08:17:56;5.68;;;3.38;;
34559;SDS011;20800;55.870;37.328;2022-10-16T08:20:25;7.78;;;3.20;;
34559;SDS011;20800;55.870;37.328;2022-10-16T08:22:52;9.85;;;3.75;;
34559;SDS011;20800;55.870;37.328;2022-10-16T08:25:19;9.05;;;3.03;;
34559;SDS011;20800;55.870;37.328;2022-10-16T08:27:46;9.45;;;3.10;;
34559;SDS011;20800;55.870;37.328;2022-10-16T08:30:12;12.32;;;3.40;;
34559;SDS011;20800;55.870;37.328;2022-10-16T08:32:38;6.28;;;2.78;;
34559;SDS011;20800;55.870;37.328;2022-10-16T08:35:06;6.85;;;3.70;;
34559;SDS011;20800;55.870;37.328;2022-10-16T08:37:33;3.75;;;2.85;;
34559;SDS011;20800;55.870;37.328;2022-10-16T08:39:59;5.75;;;2.97;;
34559;SDS011;20800;55.870;37.328;2022-10-16T08:42:29;5.65;;;3.10;;
34559;SDS011;20800;55.870;37.328;2022-10-16T08:50:45;7.15;;;3.13;;
34559;SDS011;20800;55.870;37.328;2022-10-16T08:53:22;10.00;;;3.33;;
34559;SDS011;20800;55.870;37.328;2022-10-16T08:55:55;4.93;;;3.03;;
34559;SDS011;20800;55.870;37.328;2022-10-16T08:58:27;5.28;;;2.90;;
34559;SDS011;20800;55.870;37.328;2022-10-16T09:00:59;8.55;;;2.88;;
34559;SDS011;20800;55.870;37.328;2022-10-16T09:09:14;8.88;;;3.50;;
34559;SDS011;20800;55.870;37.328;2022-10-16T09:12:00;2.42;;;2.10;;
34559;SDS011;20800;55.870;37.328;2022-10-16T09:22:46;5.85;;;2.78;;
34559;SDS011;20800;55.870;37.328;2022-10-16T09:25:13;6.82;;;2.63;;
34559;SDS011;20800;55.870;37.328;2022-10-16T09:27:45;3.88;;;2.60;;
34559;SDS011;20800;55.870;37.328;2022-10-16T09:30:15;6.90;;;3.03;;
34559;SDS011;20800;55.870;37.328;2022-10-16T09:32:44;10.63;;;2.90;;
34559;SDS011;20800;55.870;37.328;2022-10-16T09:35:16;3.92;;;2.78;;
34559;SDS011;20800;55.870;37.328;2022-10-16T09:37:47;4.78;;;2.95;;
34559;SDS011;20800;55.870;37.328;2022-10-16T09:40:32;3.88;;;2.63;;
34559;SDS011;20800;55.870;37.328;2022-10-16T09:43:03;3.85;;;2.83;;
34559;SDS011;20800;55.870;37.328;2022-10-16T09:45:38;5.10;;;2.65;;
34559;SDS011;20800;55.870;37.328;2022-10-16T09:48:11;7.18;;;2.50;;
34559;SDS011;20800;55.870;37.328;2022-10-16T09:50:38;5.82;;;2.70;;
34559;SDS011;20800;55.870;37.328;2022-10-16T09:53:05;4.07;;;2.30;;
34559;SDS011;20800;55.870;37.328;2022-10-16T09:55:48;4.65;;;2.92;;
34559;SDS011;20800;55.870;37.328;2022-10-16T09:58:15;11.13;;;2.85;;
34559;SDS011;20800;55.870;37.328;2022-10-16T10:00:48;4.88;;;2.30;;
34559;SDS011;20800;55.870;37.328;2022-10-16T10:03:30;4.20;;;2.65;;
34559;SDS011;20800;55.870;37.328;2022-10-16T10:06:05;7.28;;;2.80;;
34559;SDS011;20800;55.870;37.328;2022-10-16T10:08:41;3.90;;;2.95;;
34559;SDS011;20800;55.870;37.328;2022-10-16T10:11:44;5.22;;;2.53;;
34559;SDS011;20800;55.870;37.328;2022-10-16T10:14:22;5.05;;;2.33;;
34559;SDS011;20800;55.870;37.328;2022-10-16T10:16:49;6.85;;;2.65;;
34559;SDS011;20800;55.870;37.328;2022-10-16T10:19:19;3.25;;;2.30;;
34559;SDS011;20800;55.870;37.328;2022-10-16T10:21:46;4.65;;;2.58;;
34559;SDS011;20800;55.870;37.328;2022-10-16T10:24:14;6.10;;;2.63;;
34559;SDS011;20800;55.870;37.328;2022-10-16T10:27:14;3.45;;;2.35;;
34559;SDS011;20800;55.870;37.328;2022-10-16T10:29:53;6.30;;;2.80;;
34559;SDS011;20800;55.870;37.328;2022-10-16T10:32:48;5.50;;;2.65;;
34559;SDS011;20800;55.870;37.328;2022-10-16T10:35:22;3.65;;;2.60;;
34559;SDS011;20800;55.870;37.328;2022-10-16T10:38:04;7.60;;;2.63;;
34559;SDS011;20800;55.870;37.328;2022-10-16T10:45:58;4.80;;;2.80;;
34559;SDS011;20800;55.870;37.328;2022-10-16T10:48:47;8.30;;;3.00;;
34559;SDS011;20800;55.870;37.328;2022-10-16T10:57:09;4.10;;;3.03;;
34559;SDS011;20800;55.870;37.328;2022-10-16T11:00:02;4.82;;;2.65;;
34559;SDS011;20800;55.870;37.328;2022-10-16T11:02:40;5.47;;;3.00;;
34559;SDS011;20800;55.870;37.328;2022-10-16T11:11:25;3.30;;;2.08;;
34559;SDS011;20800;55.870;37.328;2022-10-16T11:14:19;4.03;;;2.70;;
34559;SDS011;20800;55.870;37.328;2022-10-16T11:22:02;4.60;;;2.30;;
34559;SDS011;20800;55.870;37.328;2022-10-16T11:30:33;5.03;;;2.67;;
34559;SDS011;20800;55.870;37.328;2022-10-16T11:35:44;5.15;;;2.85;;
34559;SDS011;20800;55.870;37.328;2022-10-16T11:44:05;3.58;;;2.22;;
34559;SDS011;20800;55.870;37.328;2022-10-16T11:46:46;4.18;;;2.78;;
34559;SDS011;20800;55.870;37.328;2022-10-16T11:49:24;4.72;;;2.47;;
34559;SDS011;20800;55.870;37.328;2022-10-16T11:51:57;5.05;;;2.55;;
34559;SDS011;20800;55.870;37.328;2022-10-16T11:57:29;4.88;;;2.33;;
34559;SDS011;20800;55.870;37.328;2022-10-16T12:10:33;6.25;;;2.63;;
34559;SDS011;20800;55.870;37.328;2022-10-16T12:13:03;6.30;;;2.80;;
34559;SDS011;20800;55.870;37.328;2022-10-16T12:15:32;4.70;;;2.38;;
34559;SDS011;20800;55.870;37.328;2022-10-16T12:17:59;6.30;;;3.25;;
34559;SDS011;20800;55.870;37.328;2022-10-16T12:20:27;6.63;;;2.90;;
34559;SDS011;20800;55.870;37.328;2022-10-16T12:28:00;4.55;;;2.97;;
34559;SDS011;20800;55.870;37.328;2022-10-16T12:30:29;2.47;;;2.17;;
34559;SDS011;20800;55.870;37.328;2022-10-16T12:32:58;3.50;;;2.95;;
34559;SDS011;20800;55.870;37.328;2022-10-16T12:35:28;3.58;;;2.42;;
34559;SDS011;20800;55.870;37.328;2022-10-16T12:38:07;4.55;;;2.60;;
34559;SDS011;20800;55.870;37.328;2022-10-16T12:40:42;4.90;;;2.60;;
34559;SDS011;20800;55.870;37.328;2022-10-16T12:43:23;8.30;;;2.95;;
34559;SDS011;20800;55.870;37.328;2022-10-16T12:46:04;6.60;;;2.95;;
34559;SDS011;20800;55.870;37.328;2022-10-16T12:48:46;4.45;;;3.50;;
34559;SDS011;20800;55.870;37.328;2022-10-16T13:07:41;5.43;;;3.28;;
34559;SDS011;20800;55.870;37.328;2022-10-16T13:10:22;5.90;;;2.90;;
34559;SDS011;20800;55.870;37.328;2022-10-16T13:18:40;7.57;;;3.13;;
34559;SDS011;20800;55.870;37.328;2022-10-16T13:26:53;9.32;;;3.30;;
34559;SDS011;20800;55.870;37.328;2022-10-16T13:29:30;7.88;;;3.22;;
34559;SDS011;20800;55.870;37.328;2022-10-16T13:31:58;6.75;;;2.85;;
34559;SDS011;20800;55.870;37.328;2022-10-16T13:34:25;7.93;;;3.22;;
34559;SDS011;20800;55.870;37.328;2022-10-16T13:36:53;5.10;;;2.70;;
34559;SDS011;20800;55.870;37.328;2022-10-16T13:39:29;7.45;;;3.47;;
34559;SDS011;20800;55.870;37.328;2022-10-16T13:42:15;5.28;;;2.85;;
34559;SDS011;20800;55.870;37.328;2022-10-16T13:44:43;7.47;;;3.38;;
34559;SDS011;20800;55.870;37.328;2022-10-16T13:47:17;5.93;;;2.88;;
34559;SDS011;20800;55.870;37.328;2022-10-16T13:49:44;5.82;;;3.40;;
34559;SDS011;20800;55.870;37.328;2022-10-16T13:52:18;7.40;;;3.60;;
34559;SDS011;20800;55.870;37.328;2022-10-16T13:54:46;6.07;;;3.20;;
34559;SDS011;20800;55.870;37.328;2022-10-16T13:57:15;10.15;;;3.15;;
34559;SDS011;20800;55.870;37.328;2022-10-16T13:59:42;5.75;;;3.58;;
34559;SDS011;20800;55.870;37.328;2022-10-16T14:02:50;8.15;;;3.50;;
34559;SDS011;20800;55.870;37.328;2022-10-16T14:05:01;6.60;;;3.30;;
34559;SDS011;20800;55.870;37.328;2022-10-16T14:07:30;8.07;;;3.28;;
34559;SDS011;20800;55.870;37.328;2022-10-16T14:10:05;5.78;;;3.45;;
34559;SDS011;20800;55.870;37.328;2022-10-16T14:12:53;6.65;;;4.00;;
34559;SDS011;20800;55.870;37.328;2022-10-16T14:15:23;7.95;;;3.95;;
34559;SDS011;20800;55.870;37.328;2022-10-16T14:17:51;18.23;;;8.88;;
34559;SDS011;20800;55.870;37.328;2022-10-16T14:20:18;17.42;;;7.78;;
34559;SDS011;20800;55.870;37.328;2022-10-16T14:22:57;11.95;;;5.72;;
34559;SDS011;20800;55.870;37.328;2022-10-16T14:25:29;10.88;;;4.90;;
34559;SDS011;20800;55.870;37.328;2022-10-16T14:28:00;11.90;;;6.30;;
34559;SDS011;20800;55.870;37.328;2022-10-16T14:30:28;9.18;;;4.55;;
34559;SDS011;20800;55.870;37.328;2022-10-16T14:32:57;10.95;;;5.38;;
34559;SDS011;20800;55.870;37.328;2022-10-16T14:38:04;9.02;;;4.85;;
34559;SDS011;20800;55.870;37.328;2022-10-16T14:40:33;7.30;;;4.75;;
34559;SDS011;20800;55.870;37.328;2022-10-16T14:43:01;11.18;;;4.57;;
34559;SDS011;20800;55.870;37.328;2022-10-16T14:45:29;11.15;;;6.60;;
34559;SDS011;20800;55.870;37.328;2022-10-16T14:47:58;14.48;;;5.60;;
34559;SDS011;20800;55.870;37.328;2022-10-16T14:50:28;10.32;;;4.72;;
34559;SDS011;20800;55.870;37.328;2022-10-16T14:52:54;9.80;;;5.38;;
34559;SDS011;20800;55.870;37.328;2022-10-16T14:55:21;11.77;;;4.32;;
34559;SDS011;20800;55.870;37.328;2022-10-16T14:57:47;6.18;;;4.20;;
34559;SDS011;20800;55.870;37.328;2022-10-16T15:00:23;9.68;;;4.45;;
34559;SDS011;20800;55.870;37.328;2022-10-16T15:02:50;13.20;;;5.25;;
34559;SDS011;20800;55.870;37.328;2022-10-16T15:05:18;12.15;;;5.85;;
34559;SDS011;20800;55.870;37.328;2022-10-16T15:07:47;9.38;;;5.53;;
34559;SDS011;20800;55.870;37.328;2022-10-16T15:10:15;12.23;;;6.50;;
34559;SDS011;20800;55.870;37.328;2022-10-16T15:12:42;10.85;;;5.78;;
34559;SDS011;20800;55.870;37.328;2022-10-16T15:18:02;16.35;;;6.00;;
34559;SDS011;20800;55.870;37.328;2022-10-16T15:20:31;10.07;;;5.32;;
34559;SDS011;20800;55.870;37.328;2022-10-16T15:23:03;9.07;;;6.10;;
34559;SDS011;20800;55.870;37.328;2022-10-16T15:25:42;14.50;;;6.55;;
34559;SDS011;20800;55.870;37.328;2022-10-16T15:28:10;17.52;;;6.68;;
34559;SDS011;20800;55.870;37.328;2022-10-16T15:30:37;13.52;;;7.20;;
34559;SDS011;20800;55.870;37.328;2022-10-16T15:33:04;13.50;;;5.90;;
34559;SDS011;20800;55.870;37.328;2022-10-16T15:35:35;14.00;;;7.32;;
34559;SDS011;20800;55.870;37.328;2022-10-16T15:38:01;10.75;;;5.65;;
34559;SDS011;20800;55.870;37.328;2022-10-16T15:40:27;16.38;;;5.55;;
34559;SDS011;20800;55.870;37.328;2022-10-16T15:42:53;10.02;;;4.82;;
34559;SDS011;20800;55.870;37.328;2022-10-16T15:45:20;9.32;;;5.18;;
34559;SDS011;20800;55.870;37.328;2022-10-16T15:47:46;10.02;;;5.32;;
34559;SDS011;20800;55.870;37.328;2022-10-16T15:50:12;8.70;;;4.97;;
34559;SDS011;20800;55.870;37.328;2022-10-16T15:52:39;11.20;;;4.93;;
34559;SDS011;20800;55.870;37.328;2022-10-16T15:55:07;12.80;;;4.85;;
34559;SDS011;20800;55.870;37.328;2022-10-16T15:57:34;12.45;;;5.25;;
34559;SDS011;20800;55.870;37.328;2022-10-16T16:00:06;10.50;;;5.60;;
34559;SDS011;20800;55.870;37.328;2022-10-16T16:02:37;8.38;;;5.25;;
34559;SDS011;20800;55.870;37.328;2022-10-16T16:05:03;13.38;;;5.65;;
34559;SDS011;20800;55.870;37.328;2022-10-16T16:07:35;12.27;;;4.53;;
34559;SDS011;20800;55.870;37.328;2022-10-16T16:10:02;11.75;;;4.53;;
34559;SDS011;20800;55.870;37.328;2022-10-16T16:12:30;8.23;;;4.40;;
34559;SDS011;20800;55.870;37.328;2022-10-16T16:14:56;5.95;;;4.03;;
34559;SDS011;20800;55.870;37.328;2022-10-16T16:17:22;6.93;;;4.25;;
34559;SDS011;20800;55.870;37.328;2022-10-16T16:19:49;6.97;;;4.18;;
34559;SDS011;20800;55.870;37.328;2022-10-16T16:22:16;7.88;;;4.75;;
34559;SDS011;20800;55.870;37.328;2022-10-16T16:24:42;8.30;;;4.50;;
34559;SDS011;20800;55.870;37.328;2022-10-16T16:27:09;8.55;;;4.20;;
34559;SDS011;20800;55.870;37.328;2022-10-16T16:29:35;11.80;;;4.55;;
34559;SDS011;20800;55.870;37.328;2022-10-16T16:32:01;6.15;;;3.97;;
34559;SDS011;20800;55.870;37.328;2022-10-16T16:34:27;7.45;;;4.40;;
34559;SDS011;20800;55.870;37.328;2022-10-16T16:36:55;9.77;;;5.03;;
34559;SDS011;20800;55.870;37.328;2022-10-16T16:39:21;12.02;;;5.22;;
34559;SDS011;20800;55.870;37.328;2022-10-16T16:41:48;10.68;;;5.05;;
34559;SDS011;20800;55.870;37.328;2022-10-16T16:44:15;7.75;;;4.07;;
34559;SDS011;20800;55.870;37.328;2022-10-16T16:46:42;8.57;;;4.85;;
34559;SDS011;20800;55.870;37.328;2022-10-16T16:49:13;11.45;;;4.90;;
34559;SDS011;20800;55.870;37.328;2022-10-16T16:51:40;9.10;;;5.32;;
34559;SDS011;20800;55.870;37.328;2022-10-16T16:54:06;9.18;;;5.47;;
34559;SDS011;20800;55.870;37.328;2022-10-16T16:56:34;6.90;;;4.07;;
34559;SDS011;20800;55.870;37.328;2022-10-16T16:59:00;7.63;;;4.35;;